Time;durP1;ratioP1;P1;durP2;ratioP2;P2;SDS_P1;SDS_P2;PMS_P1;PMS_P2;Temp;Humidity;BMP_temperature;BMP_pressure;BME280_temperature;BME280_humidity;BME280_pressure;Samples;Min_cycle;Max_cycle;Signal;HPM_P1;HPM_P2
2022/08/10 00:02:35;;;;;;;;;9.33;7.00;;;;;27.57;37.67;101956.88;5088493;27;45357;-67
2022/08/10 00:05:00;;;;;;;;;5.33;5.33;;;;;27.55;37.63;101947.88;5087518;27;45397;-68
2022/08/10 00:07:25;;;;;;;;;5.67;5.67;;;;;27.62;36.93;101953.38;5074602;27;45258;-68
2022/08/10 00:09:51;;;;;;;;;6.00;5.33;;;;;27.60;37.20;101950.84;5094592;27;45402;-68
2022/08/10 00:12:18;;;;;;;;;6.00;6.00;;;;;27.49;38.14;101946.00;5090764;27;45365;-68
2022/08/10 00:14:44;;;;;;;;;7.33;7.33;;;;;27.40;38.09;101941.78;5077265;27;46423;-67
2022/08/10 00:17:09;;;;;;;;;5.00;5.00;;;;;27.28;38.71;101941.72;5086356;27;45653;-68
2022/08/10 00:19:34;;;;;;;;;6.00;6.00;;;;;27.27;38.51;101942.78;5092569;27;45465;-67
2022/08/10 00:22:00;;;;;;;;;6.00;6.00;;;;;27.32;38.69;101956.06;5086878;27;45469;-67
2022/08/10 00:24:25;;;;;;;;;8.67;7.67;;;;;27.04;38.56;101934.19;5090439;27;46827;-67
2022/08/10 00:26:50;;;;;;;;;7.00;6.67;;;;;27.05;39.12;101945.13;5087245;27;45369;-66
2022/08/10 00:29:16;;;;;;;;;8.33;7.00;;;;;27.02;38.45;101951.19;5089346;27;45447;-66
2022/08/10 00:31:41;;;;;;;;;5.00;5.00;;;;;27.04;38.87;101943.44;5066540;27;45519;-67
2022/08/10 00:34:06;;;;;;;;;3.67;3.67;;;;;27.06;38.94;101946.84;5074454;27;46736;-66
2022/08/10 00:36:32;;;;;;;;;6.00;5.67;;;;;26.97;38.63;101939.84;5088950;27;45349;-66
2022/08/10 00:38:57;;;;;;;;;6.00;6.00;;;;;26.97;39.36;101947.34;5078709;27;45266;-66
2022/08/10 00:41:22;;;;;;;;;7.33;6.00;;;;;26.87;39.38;101941.41;5082688;28;45618;-67
2022/08/10 00:43:48;;;;;;;;;5.00;5.00;;;;;26.86;39.01;101939.72;5085523;27;46410;-66
2022/08/10 00:46:13;;;;;;;;;7.33;6.00;;;;;26.73;39.48;101937.88;5091138;27;45207;-66
2022/08/10 00:48:38;;;;;;;;;5.00;5.00;;;;;26.87;39.35;101942.28;5088570;27;45326;-66
2022/08/10 00:51:04;;;;;;;;;5.33;5.33;;;;;26.87;39.08;101933.91;5094480;27;46187;-66
2022/08/10 00:53:29;;;;;;;;;6.00;6.00;;;;;26.89;39.81;101939.25;5085763;27;45489;-66
2022/08/10 00:55:55;;;;;;;;;6.67;6.67;;;;;26.78;39.46;101940.00;5093191;27;45420;-67
2022/08/10 00:58:21;;;;;;;;;7.33;6.00;;;;;26.79;39.44;101936.97;5069615;27;45411;-66
2022/08/10 01:00:47;;;;;;;;;6.33;6.33;;;;;26.86;39.14;101937.78;5091695;27;45294;-66
2022/08/10 01:03:13;;;;;;;;;5.00;5.00;;;;;26.86;38.96;101923.84;5082469;27;45325;-67
2022/08/10 01:05:54;;;;;;;;;7.00;5.67;;;;;26.75;39.50;101936.56;5092103;27;45506;-66
2022/08/10 01:08:35;;;;;;;;;8.00;7.00;;;;;26.73;39.60;101935.97;5079936;27;45377;-66
2022/08/10 01:11:00;;;;;;;;;5.33;5.33;;;;;26.73;39.25;101929.53;5071188;28;45546;-66
2022/08/10 01:13:52;;;;;;;;;6.00;5.00;;;;;26.74;39.77;101931.22;5064059;27;47681;-66
2022/08/10 01:16:25;;;;;;;;;6.67;6.67;;;;;26.74;39.22;101934.00;5065308;28;45342;-66
2022/08/10 01:19:06;;;;;;;;;5.00;5.00;;;;;26.71;39.46;101934.47;5069518;28;45441;-66
2022/08/10 01:21:53;;;;;;;;;6.33;6.33;;;;;26.70;39.75;101930.81;5069218;28;45230;-66
2022/08/10 01:24:53;;;;;;;;;3.67;3.67;;;;;26.53;40.20;101926.00;5072797;28;45626;-66
2022/08/10 01:27:27;;;;;;;;;4.33;3.67;;;;;26.58;39.94;101918.69;5076130;27;45554;-67
2022/08/10 01:30:12;;;;;;;;;5.33;5.00;;;;;26.62;39.92;101935.81;5072782;27;45312;-66
2022/08/10 01:32:59;;;;;;;;;3.67;3.67;;;;;26.56;40.35;101933.94;5072073;28;45315;-66
2022/08/10 01:35:37;;;;;;;;;5.00;5.00;;;;;26.49;40.21;101927.56;5080880;28;46187;-66
2022/08/10 01:38:17;;;;;;;;;7.33;5.33;;;;;26.56;40.12;101925.56;5068154;28;45389;-66
2022/08/10 01:40:52;;;;;;;;;5.00;5.00;;;;;26.53;40.08;101928.78;5079778;28;45491;-66
2022/08/10 01:43:19;;;;;;;;;8.00;7.00;;;;;26.42;40.27;101932.31;5068723;28;45349;-66
2022/08/10 01:45:50;;;;;;;;;6.67;6.67;;;;;26.45;40.28;101920.69;5077112;27;45369;-66
2022/08/10 01:48:27;;;;;;;;;4.00;4.00;;;;;26.52;40.32;101924.31;5068814;28;48014;-66
2022/08/10 01:50:56;;;;;;;;;5.00;5.00;;;;;26.54;40.48;101922.16;5077421;28;45384;-66
2022/08/10 01:53:26;;;;;;;;;5.33;5.33;;;;;26.43;40.08;101926.53;5066985;28;45301;-66
2022/08/10 01:55:54;;;;;;;;;5.00;5.00;;;;;26.43;40.45;101932.09;5075712;28;46306;-66
2022/08/10 01:58:24;;;;;;;;;4.33;4.33;;;;;26.44;40.42;101928.25;5066768;28;45538;-66
2022/08/10 02:00:52;;;;;;;;;6.33;6.33;;;;;26.41;40.89;101927.81;5075302;28;45301;-66
2022/08/10 02:03:21;;;;;;;;;6.00;6.00;;;;;26.31;40.87;101923.59;5067940;28;45374;-66
2022/08/10 02:05:51;;;;;;;;;7.00;5.67;;;;;26.30;40.30;101905.16;5065869;28;45436;-66
2022/08/10 02:08:19;;;;;;;;;5.00;5.00;;;;;26.22;40.99;101924.91;5066553;28;45532;-66
2022/08/10 02:10:47;;;;;;;;;5.67;5.67;;;;;26.11;41.09;101922.81;5088127;27;45472;-66
2022/08/10 02:13:16;;;;;;;;;5.00;5.00;;;;;26.12;41.37;101913.38;5087803;27;45636;-66
2022/08/10 02:15:44;;;;;;;;;4.00;4.00;;;;;26.02;41.19;101918.56;5094304;27;45863;-66
2022/08/10 02:18:11;;;;;;;;;6.00;5.00;;;;;26.00;41.12;101915.19;5086882;27;45415;-66
2022/08/10 02:20:42;;;;;;;;;3.00;3.00;;;;;26.05;41.80;101918.16;5095401;27;45354;-67
2022/08/10 02:23:14;;;;;;;;;5.67;5.00;;;;;26.04;41.58;101919.22;5087178;27;45563;-66
2022/08/10 02:25:41;;;;;;;;;5.67;5.67;;;;;26.04;41.83;101915.56;5094901;27;46674;-66
2022/08/10 02:28:08;;;;;;;;;6.33;6.33;;;;;25.91;42.09;101922.94;5091665;27;45517;-66
2022/08/10 02:30:35;;;;;;;;;6.67;5.00;;;;;25.92;42.09;101934.94;5095606;27;45456;-66
2022/08/10 02:33:03;;;;;;;;;6.00;5.67;;;;;26.03;42.13;101923.06;5086169;27;45270;-66
2022/08/10 02:35:30;;;;;;;;;7.67;6.33;;;;;25.90;42.39;101935.13;5091105;27;46898;-66
2022/08/10 02:38:02;;;;;;;;;5.00;5.00;;;;;25.82;42.98;101917.81;5086415;27;45387;-66
2022/08/10 02:40:31;;;;;;;;;5.00;5.00;;;;;25.84;42.80;101929.59;5091907;27;45350;-66
2022/08/10 02:43:13;;;;;;;;;6.33;6.33;;;;;25.77;42.75;101920.41;5069354;27;45491;-66
2022/08/10 02:45:45;;;;;;;;;5.00;5.00;;;;;25.84;42.72;101926.81;5096105;27;45355;-68
2022/08/10 02:48:36;;;;;;;;;6.33;5.00;;;;;25.77;42.57;101931.56;5087176;27;45318;-66
2022/08/10 02:51:07;;;;;;;;;5.67;5.33;;;;;25.73;42.80;101922.78;5096052;27;45404;-66
2022/08/10 02:53:52;;;;;;;;;6.00;6.00;;;;;25.70;43.10;101931.59;5068629;28;45261;-66
2022/08/10 02:56:31;;;;;;;;;5.67;5.67;;;;;25.56;43.21;101936.31;5091530;27;45691;-66
2022/08/10 02:59:00;;;;;;;;;7.33;6.00;;;;;25.60;43.00;101925.63;5087880;27;45370;-66
2022/08/10 03:01:39;;;;;;;;;8.00;7.00;;;;;25.66;43.27;101933.06;5094717;27;45562;-66
2022/08/10 03:04:08;;;;;;;;;9.00;9.00;;;;;25.47;43.60;101923.69;5092418;27;45244;-66
2022/08/10 03:06:38;;;;;;;;;7.00;6.33;;;;;25.54;43.42;101941.22;5092836;27;45522;-66
2022/08/10 03:09:06;;;;;;;;;6.67;6.67;;;;;25.45;43.49;101934.19;5092528;27;45435;-66
2022/08/10 03:11:34;;;;;;;;;8.00;8.00;;;;;25.51;43.35;101933.31;5091646;27;45480;-66
2022/08/10 03:14:00;;;;;;;;;6.33;6.00;;;;;25.56;43.71;101930.75;5088415;27;45540;-66
2022/08/10 03:16:28;;;;;;;;;6.00;6.00;;;;;25.39;44.32;101929.50;5092248;27;45413;-66
2022/08/10 03:18:58;;;;;;;;;6.00;6.00;;;;;25.37;43.76;101937.19;5087251;27;45389;-66
2022/08/10 03:21:26;;;;;;;;;7.67;6.33;;;;;25.35;43.90;101928.19;5092758;27;45320;-66
2022/08/10 03:23:54;;;;;;;;;8.00;7.00;;;;;25.30;43.98;101925.22;5090912;27;45573;-66
2022/08/10 03:26:20;;;;;;;;;5.33;5.33;;;;;25.37;44.47;101919.66;5097343;27;45406;-66
2022/08/10 03:28:47;;;;;;;;;5.67;5.67;;;;;25.28;44.53;101916.22;5093994;27;45263;-66
2022/08/10 03:31:13;;;;;;;;;7.00;4.67;;;;;25.22;44.70;101914.31;5090240;27;45719;-66
2022/08/10 03:33:41;;;;;;;;;6.00;6.00;;;;;25.25;44.13;101916.69;5087148;27;45470;-66
2022/08/10 03:36:07;;;;;;;;;4.33;4.33;;;;;25.07;44.71;101919.25;5091251;27;46365;-66
2022/08/10 03:38:33;;;;;;;;;7.00;6.67;;;;;24.97;45.05;101899.41;5068293;27;45392;-66
2022/08/10 03:41:02;;;;;;;;;6.00;6.00;;;;;25.13;45.30;101921.22;5093856;27;45441;-66
2022/08/10 03:43:28;;;;;;;;;6.00;6.00;;;;;24.96;45.39;101925.50;5086845;27;45319;-66
2022/08/10 03:45:57;;;;;;;;;6.67;6.67;;;;;25.02;45.30;101917.13;5094679;27;45325;-66
2022/08/10 03:48:25;;;;;;;;;6.33;6.33;;;;;24.84;45.42;101930.78;5086246;27;45272;-66
2022/08/10 03:50:52;;;;;;;;;5.67;4.67;;;;;24.82;45.99;101931.03;5094566;27;45441;-66
2022/08/10 03:53:19;;;;;;;;;6.33;6.33;;;;;24.80;45.92;101933.16;5086654;27;45682;-66
2022/08/10 03:55:45;;;;;;;;;6.67;6.67;;;;;24.76;46.73;101931.03;5092474;27;45244;-66
2022/08/10 03:58:11;;;;;;;;;8.00;6.00;;;;;24.68;46.66;101923.75;5084867;27;45404;-66
2022/08/10 04:00:37;;;;;;;;;6.67;6.67;;;;;24.77;46.72;101918.81;5081171;27;45782;-66
2022/08/10 04:03:04;;;;;;;;;7.00;5.33;;;;;24.81;46.58;101928.47;5084707;27;45553;-66
2022/08/10 04:05:31;;;;;;;;;10.00;7.00;;;;;24.80;46.32;101930.38;5098586;27;45348;-66
2022/08/10 04:07:58;;;;;;;;;7.00;6.33;;;;;24.68;46.96;101926.53;5084084;27;46447;-66
2022/08/10 04:10:24;;;;;;;;;7.33;6.00;;;;;24.69;46.38;101928.22;5098680;27;45342;-66
2022/08/10 04:12:49;;;;;;;;;9.00;8.00;;;;;24.67;47.52;101933.16;5084072;27;45302;-66
2022/08/10 04:15:14;;;;;;;;;6.33;6.33;;;;;24.67;47.19;101935.06;5094984;27;51629;-66
2022/08/10 04:17:40;;;;;;;;;9.67;8.67;;;;;24.59;47.07;101932.50;5085325;27;45416;-66
2022/08/10 04:20:09;;;;;;;;;2.00;2.00;;;;;24.71;46.79;101941.91;5098772;27;45715;-66
2022/08/10 04:22:36;;;;;;;;;7.00;7.00;;;;;24.74;47.13;101936.78;5099812;27;45238;-66
2022/08/10 04:25:03;;;;;;;;;5.00;5.00;;;;;24.74;47.00;101933.16;5096476;27;46287;-66
2022/08/10 04:27:30;;;;;;;;;7.33;7.33;;;;;24.66;47.46;101931.44;5098089;27;45345;-66
2022/08/10 04:29:56;;;;;;;;;7.00;7.00;;;;;24.62;46.63;101930.13;5094291;27;45409;-66
2022/08/10 04:32:24;;;;;;;;;7.33;7.00;;;;;24.64;47.59;101939.13;5083673;27;45229;-66
2022/08/10 04:34:53;;;;;;;;;6.67;6.67;;;;;24.48;47.97;101933.97;5091542;27;45346;-66
2022/08/10 04:37:20;;;;;;;;;11.00;6.00;;;;;24.52;47.75;101942.75;5099666;27;45393;-66
2022/08/10 04:39:46;;;;;;;;;15.75;15.25;;;;;24.44;47.71;101930.78;5074107;27;45472;-66
2022/08/10 04:42:12;;;;;;;;;11.67;8.67;;;;;24.40;48.18;101945.31;5088105;27;45338;-66
2022/08/10 04:44:37;;;;;;;;;8.00;8.00;;;;;24.46;47.76;101944.47;5089405;27;45460;-66
2022/08/10 04:47:03;;;;;;;;;8.67;8.00;;;;;24.55;47.66;101950.66;5073669;28;45389;-67
2022/08/10 04:49:28;;;;;;;;;4.00;4.00;;;;;24.44;48.91;101949.38;5088521;27;45528;-66
2022/08/10 04:51:54;;;;;;;;;6.67;6.00;;;;;24.48;48.09;101942.31;5088617;27;45302;-66
2022/08/10 04:54:19;;;;;;;;;6.33;6.33;;;;;24.44;48.00;101943.81;5090389;27;46276;-66
2022/08/10 04:56:44;;;;;;;;;8.00;7.67;;;;;24.46;48.29;101946.38;5089031;27;45323;-66
2022/08/10 04:59:10;;;;;;;;;2.00;2.00;;;;;24.51;48.44;101953.00;5085745;27;45219;-66
2022/08/10 05:01:38;;;;;;;;;8.67;8.67;;;;;24.46;48.36;101952.78;5088921;27;45543;-66
2022/08/10 05:04:03;;;;;;;;;10.67;10.67;;;;;24.46;48.96;101961.13;5086319;27;46186;-66
2022/08/10 05:06:29;;;;;;;;;6.67;6.67;;;;;24.22;49.21;101953.38;5069589;27;45337;-66
2022/08/10 05:08:54;;;;;;;;;6.00;6.00;;;;;24.32;49.39;101960.25;5088010;27;45317;-66
2022/08/10 05:11:19;;;;;;;;;6.33;6.33;;;;;24.37;48.89;101962.38;5101234;27;45548;-66
2022/08/10 05:13:45;;;;;;;;;9.67;8.00;;;;;24.41;48.69;101960.88;5098453;27;45354;-65
2022/08/10 05:16:10;;;;;;;;;10.00;7.67;;;;;24.54;48.74;101957.31;5092626;27;45437;-66
2022/08/10 05:18:36;;;;;;;;;10.67;9.67;;;;;24.53;48.61;101962.00;5084351;27;45314;-65
2022/08/10 05:21:01;;;;;;;;;12.67;6.33;;;;;24.56;48.30;101955.13;5089751;27;45356;-66
2022/08/10 05:23:27;;;;;;;;;8.00;8.00;;;;;24.49;48.30;101955.13;5085272;27;46517;-66
2022/08/10 05:25:52;;;;;;;;;12.67;11.33;;;;;24.57;48.37;101963.28;5096255;27;45351;-66
2022/08/10 05:28:17;;;;;;;;;7.00;7.00;;;;;24.52;48.35;101963.06;5098755;27;45287;-66
2022/08/10 05:30:43;;;;;;;;;7.33;7.33;;;;;24.53;48.08;101966.69;5093844;27;45231;-66
2022/08/10 05:33:08;;;;;;;;;8.00;8.00;;;;;24.75;48.19;101965.44;5070277;27;47767;-66
2022/08/10 05:35:34;;;;;;;;;6.00;6.00;;;;;24.80;46.90;101960.97;5092354;27;45397;-65
2022/08/10 05:37:59;;;;;;;;;7.33;6.00;;;;;25.00;46.72;101962.91;5069070;27;45499;-66
2022/08/10 05:40:27;;;;;;;;;7.33;7.00;;;;;25.11;47.04;101956.72;5093235;27;45682;-66
2022/08/10 05:42:52;;;;;;;;;8.00;8.00;;;;;25.30;46.24;101958.59;5100979;27;45563;-67
2022/08/10 05:45:22;;;;;;;;;7.67;7.67;;;;;25.18;46.63;101971.47;5073078;27;45269;-66
2022/08/10 05:47:48;;;;;;;;;8.33;8.00;;;;;25.36;45.82;101959.66;5083003;27;45549;-66
2022/08/10 05:50:15;;;;;;;;;9.67;9.00;;;;;25.50;45.42;101961.34;5089803;27;45311;-66
2022/08/10 05:52:41;;;;;;;;;11.00;8.00;;;;;25.50;45.69;101959.41;5086524;27;45258;-66
2022/08/10 05:55:08;;;;;;;;;8.33;6.67;;;;;25.64;44.71;101956.66;5087669;27;45452;-67
2022/08/10 05:57:35;;;;;;;;;7.33;7.33;;;;;25.69;44.94;101967.97;5094270;27;45423;-66
2022/08/10 06:00:05;;;;;;;;;7.33;6.67;;;;;25.62;45.10;101967.16;5091410;27;45479;-66
2022/08/10 06:02:32;;;;;;;;;8.00;8.00;;;;;25.74;44.96;101970.97;5091288;27;45457;-66
2022/08/10 06:05:02;;;;;;;;;10.00;8.33;;;;;25.72;44.92;101961.97;5092890;27;45445;-66
2022/08/10 06:07:30;;;;;;;;;9.33;8.33;;;;;25.67;44.68;101964.56;5081842;27;45473;-66
2022/08/10 06:09:57;;;;;;;;;10.50;10.50;;;;;25.83;44.78;101970.50;5093727;27;45544;-66
2022/08/10 06:12:23;;;;;;;;;9.67;7.00;;;;;25.66;45.25;101971.19;5098061;27;45545;-67
2022/08/10 06:15:02;;;;;;;;;8.00;5.00;;;;;25.51;45.51;101955.56;5076140;27;45447;-66
2022/08/10 06:17:29;;;;;;;;;8.67;8.67;;;;;25.59;45.15;101974.00;5093822;27;45271;-67
2022/08/10 06:19:58;;;;;;;;;6.67;6.67;;;;;26.14;44.11;101966.97;5080853;27;45482;-67
2022/08/10 06:22:31;;;;;;;;;10.00;9.00;;;;;26.32;43.43;101964.31;5083947;27;46219;-66
2022/08/10 06:24:57;;;;;;;;;7.33;7.33;;;;;26.71;42.08;101979.06;5093484;27;45420;-66
2022/08/10 06:27:23;;;;;;;;;11.00;11.00;;;;;27.11;41.71;101969.31;5096767;27;45470;-67
2022/08/10 06:29:51;;;;;;;;;14.25;11.00;;;;;27.16;41.57;101970.59;5092702;27;45439;-67
2022/08/10 06:32:18;;;;;;;;;10.00;10.00;;;;;27.09;41.46;101985.47;5090066;27;45406;-67
2022/08/10 06:34:46;;;;;;;;;10.00;8.67;;;;;27.37;40.64;101981.34;5069141;27;45401;-67
2022/08/10 06:37:16;;;;;;;;;9.00;9.00;;;;;27.43;40.80;101980.41;5091613;27;45406;-67
2022/08/10 06:39:42;;;;;;;;;10.33;10.33;;;;;27.45;40.56;101978.25;5089157;27;45473;-67
2022/08/10 06:42:15;;;;;;;;;6.67;6.67;;;;;27.16;40.81;101970.59;5092336;27;45335;-67
2022/08/10 06:45:03;;;;;;;;;9.00;9.00;;;;;27.17;41.02;101977.88;5091675;27;45436;-67
2022/08/10 06:47:35;;;;;;;;;8.00;8.00;;;;;27.21;40.73;101979.13;5076593;27;45327;-67
2022/08/10 06:50:09;;;;;;;;;8.33;8.00;;;;;27.31;40.50;101980.34;5089432;27;45259;-68
2022/08/10 06:52:35;;;;;;;;;11.33;8.33;;;;;27.33;40.73;101974.50;5087579;27;48200;-65
2022/08/10 06:55:02;;;;;;;;;9.00;9.00;;;;;27.37;40.47;101978.56;5089271;27;48298;-66
2022/08/10 06:57:31;;;;;;;;;9.33;9.00;;;;;27.54;40.23;101979.72;5087812;27;45286;-67
2022/08/10 06:59:59;;;;;;;;;7.67;7.67;;;;;27.69;39.52;101982.94;5086476;27;45492;-66
2022/08/10 07:02:32;;;;;;;;;12.33;9.67;;;;;27.65;39.97;101981.72;5082697;27;45422;-66
2022/08/10 07:05:05;;;;;;;;;8.67;8.67;;;;;27.45;40.04;101975.47;5094616;27;45421;-66
2022/08/10 07:07:35;;;;;;;;;8.33;8.00;;;;;27.63;40.19;101974.66;5090998;27;45297;-66
2022/08/10 07:10:01;;;;;;;;;31.00;23.25;;;;;27.73;39.35;101986.16;5087245;27;45469;-65
2022/08/10 07:12:29;;;;;;;;;14.67;13.00;;;;;27.78;39.36;101981.56;5084679;27;45445;-66
2022/08/10 07:14:56;;;;;;;;;8.33;8.33;;;;;27.70;39.70;101981.88;5095386;27;45349;-66
2022/08/10 07:17:24;;;;;;;;;9.00;9.00;;;;;27.78;39.26;101981.56;5083303;27;45423;-66
2022/08/10 07:19:58;;;;;;;;;9.67;8.67;;;;;27.93;39.06;101977.53;5096394;27;45580;-66
2022/08/10 07:22:30;;;;;;;;;12.00;10.00;;;;;28.11;38.78;101981.16;5064479;28;47868;-66
2022/08/10 07:24:57;;;;;;;;;13.00;13.00;;;;;27.92;38.95;101978.59;5094894;27;45205;-66
2022/08/10 07:27:25;;;;;;;;;9.33;9.33;;;;;28.02;38.37;101974.19;5087936;27;45470;-67
2022/08/10 07:29:52;;;;;;;;;10.67;10.67;;;;;27.57;39.14;101975.56;5091189;27;45334;-66
2022/08/10 07:32:20;;;;;;;;;11.67;10.67;;;;;27.35;39.92;101969.53;5087597;27;45497;-67
2022/08/10 07:34:48;;;;;;;;;9.00;7.33;;;;;27.67;39.30;101973.97;5094570;27;45555;-67
2022/08/10 07:37:14;;;;;;;;;8.33;8.33;;;;;28.07;38.53;101973.47;5088445;27;45313;-67
2022/08/10 07:39:47;;;;;;;;;10.33;10.33;;;;;28.35;38.18;101976.56;5068216;27;45295;-67
2022/08/10 07:42:16;;;;;;;;;10.25;8.00;;;;;28.27;37.72;101974.13;5089205;27;45565;-67
2022/08/10 07:44:44;;;;;;;;;11.00;10.67;;;;;27.98;38.40;101977.69;5086891;27;45338;-67
2022/08/10 07:47:14;;;;;;;;;10.67;10.33;;;;;28.12;38.57;101976.44;5090117;27;45443;-66
2022/08/10 07:49:43;;;;;;;;;11.33;10.00;;;;;28.19;38.13;101977.22;5088349;27;45337;-67
2022/08/10 07:52:10;;;;;;;;;8.00;8.00;;;;;28.46;37.61;101978.56;5090209;27;46219;-67
2022/08/10 07:54:46;;;;;;;;;9.33;9.33;;;;;28.40;37.42;101976.72;5086067;27;45373;-67
2022/08/10 07:57:17;;;;;;;;;10.00;8.00;;;;;28.01;38.23;101971.63;5069995;28;45412;-67
2022/08/10 07:59:47;;;;;;;;;14.00;12.00;;;;;28.26;37.59;101983.59;5089092;27;45370;-67
2022/08/10 08:02:22;;;;;;;;;11.67;8.67;;;;;28.50;37.43;101984.53;5086997;27;45455;-67
2022/08/10 08:04:48;;;;;;;;;10.00;10.00;;;;;28.92;36.99;101985.44;5088510;27;45525;-67
2022/08/10 08:07:15;;;;;;;;;13.25;13.25;;;;;29.25;35.82;101987.66;5067720;27;45398;-67
2022/08/10 08:09:42;;;;;;;;;9.00;7.33;;;;;29.32;35.33;101985.59;5092372;27;45408;-67
2022/08/10 08:12:10;;;;;;;;;11.00;10.75;;;;;29.24;35.46;101986.78;5084172;27;46850;-67
2022/08/10 08:14:37;;;;;;;;;12.00;11.00;;;;;29.51;35.06;101980.75;5089729;27;45357;-67
2022/08/10 08:17:02;;;;;;;;;12.00;11.00;;;;;29.90;34.82;101979.97;5080438;28;45299;-67
2022/08/10 08:19:29;;;;;;;;;14.00;11.33;;;;;30.35;34.40;101980.09;5094214;27;45472;-67
2022/08/10 08:21:56;;;;;;;;;11.67;9.67;;;;;30.58;33.45;101976.38;5102429;27;45395;-68
2022/08/10 08:24:23;;;;;;;;;10.75;8.75;;;;;30.11;33.44;101976.53;5096042;27;45610;-68
2022/08/10 08:26:51;;;;;;;;;12.00;12.00;;;;;30.18;33.39;101971.63;5094151;27;45412;-67
2022/08/10 08:29:19;;;;;;;;;15.00;12.00;;;;;29.85;33.85;101960.25;5089652;27;46036;-67
2022/08/10 08:31:45;;;;;;;;;10.33;10.33;;;;;29.86;33.63;101966.69;5094317;27;46513;-67
2022/08/10 08:34:12;;;;;;;;;10.33;9.33;;;;;30.32;33.74;101960.13;5088390;27;45453;-67
2022/08/10 08:36:41;;;;;;;;;10.00;9.67;;;;;30.23;33.68;101951.28;5092415;27;45420;-67
2022/08/10 08:39:07;;;;;;;;;11.67;11.33;;;;;30.46;33.52;101956.78;5090467;27;45328;-67
2022/08/10 08:41:55;;;;;;;;;15.50;12.25;;;;;30.39;33.23;101958.84;5082802;27;46537;-67
2022/08/10 08:44:30;;;;;;;;;12.00;11.00;;;;;30.70;32.86;101960.31;5087982;27;45379;-67
2022/08/10 08:47:20;;;;;;;;;11.00;11.00;;;;;31.17;32.11;101946.84;5079736;27;45504;-67
2022/08/10 08:50:07;;;;;;;;;10.00;10.00;;;;;31.65;32.14;101954.63;5085998;27;45584;-67
2022/08/10 08:52:35;;;;;;;;;10.33;10.00;;;;;31.92;30.33;101953.88;5082160;27;46260;-68
2022/08/10 08:55:39;;;;;;;;;10.00;10.00;;;;;32.22;29.87;101959.88;5068984;28;45397;-67
2022/08/10 08:58:17;;;;;;;;;11.00;11.00;;;;;31.99;29.56;101948.91;5094352;27;45503;-66
2022/08/10 09:01:27;;;;;;;;;17.00;12.75;;;;;32.13;30.33;101961.44;5093286;27;45289;-66
2022/08/10 09:04:14;;;;;;;;;12.75;10.25;;;;;32.14;29.56;101949.09;4999393;27;45504;-66
2022/08/10 09:07:18;;;;;;;;;11.00;11.00;;;;;32.49;29.27;101948.66;5082468;27;45239;-66
2022/08/10 09:10:09;;;;;;;;;10.67;9.67;;;;;33.10;28.74;101947.25;5086622;27;45515;-66
2022/08/10 09:12:42;;;;;;;;;8.25;8.25;;;;;33.59;27.82;101941.44;5064700;27;45210;-66
2022/08/10 09:15:17;;;;;;;;;12.00;12.00;;;;;33.23;27.18;101932.78;5086606;27;46081;-66
2022/08/10 09:18:01;;;;;;;;;10.67;10.67;;;;;33.19;28.68;101945.66;5082364;27;45264;-66
2022/08/10 09:20:38;;;;;;;;;11.33;11.00;;;;;33.85;27.38;101939.63;5091348;27;45380;-66
2022/08/10 09:23:25;;;;;;;;;10.00;10.00;;;;;33.92;26.51;101935.41;5085301;27;45272;-66
2022/08/10 09:25:54;;;;;;;;;10.50;10.50;;;;;33.50;27.47;101931.78;5092419;27;45292;-66
2022/08/10 09:28:26;;;;;;;;;12.00;10.25;;;;;33.65;27.17;101945.97;5094835;27;45498;-66
2022/08/10 09:31:03;;;;;;;;;12.50;12.00;;;;;33.89;26.13;101927.53;5094100;27;45378;-66
2022/08/10 09:34:06;;;;;;;;;13.50;12.00;;;;;33.36;27.02;101925.81;5085208;27;45323;-66
2022/08/10 09:36:46;;;;;;;;;10.75;9.50;;;;;34.21;26.54;101932.13;5091886;27;46568;-66
2022/08/10 09:39:14;;;;;;;;;13.75;11.75;;;;;34.27;25.47;101931.03;5086566;27;45445;-66
2022/08/10 09:42:08;;;;;;;;;11.75;10.00;;;;;34.16;25.81;101918.03;5092413;27;46324;-66
2022/08/10 09:44:45;;;;;;;;;8.00;8.00;;;;;34.48;25.76;101918.69;5087480;27;45374;-66
2022/08/10 09:47:25;;;;;;;;;11.75;11.75;;;;;34.99;24.87;101916.78;5078729;27;47269;-66
2022/08/10 09:49:59;;;;;;;;;18.25;14.50;;;;;35.34;24.34;101923.53;5093763;27;45746;-66
2022/08/10 09:53:06;;;;;;;;;10.50;10.00;;;;;35.69;23.54;101926.25;5091163;27;45456;-66
2022/08/10 09:55:41;;;;;;;;;10.25;10.25;;;;;35.99;23.82;101911.16;5067313;27;45478;-66
2022/08/10 09:58:33;;;;;;;;;10.25;8.50;;;;;35.74;23.93;101925.41;5084438;27;45572;-67
2022/08/10 10:01:23;;;;;;;;;9.25;9.25;;;;;35.72;24.03;101913.56;5086027;27;45411;-67
2022/08/10 10:04:05;;;;;;;;;12.50;10.50;;;;;36.38;23.25;101910.41;5087008;27;45400;-67
2022/08/10 10:06:46;;;;;;;;;8.00;8.00;;;;;37.16;22.42;101910.38;5085937;27;45365;-67
2022/08/10 10:09:20;;;;;;;;;8.75;8.75;;;;;37.48;21.69;101904.88;5091101;27;45466;-67
2022/08/10 10:12:08;;;;;;;;;9.25;9.25;;;;;37.69;22.06;101895.06;5090980;27;45497;-67
2022/08/10 10:15:19;;;;;;;;;11.50;8.50;;;;;38.03;21.62;101896.84;5092835;27;45548;-68
2022/08/10 10:18:18;;;;;;;;;10.75;10.75;;;;;37.38;22.22;101896.53;5085694;27;45289;-65
2022/08/10 10:20:54;;;;;;;;;12.00;9.00;;;;;37.62;21.23;101885.22;5101339;27;45661;-67
2022/08/10 10:23:38;;;;;;;;;9.00;9.00;;;;;37.93;20.81;101885.63;5086445;27;45420;-68
2022/08/10 10:26:40;;;;;;;;;11.75;11.75;;;;;38.35;20.97;101890.47;5097980;27;45443;-68
2022/08/10 10:29:23;;;;;;;;;10.00;10.00;;;;;38.55;20.76;101879.66;5089375;27;45397;-68
2022/08/10 10:31:56;;;;;;;;;9.00;9.00;;;;;38.95;19.98;101880.09;5077309;28;46709;-67
2022/08/10 10:34:48;;;;;;;;;13.50;11.00;;;;;37.46;20.76;101867.50;5090109;27;45338;-67
2022/08/10 10:37:15;;;;;;;;;9.75;9.75;;;;;37.45;20.66;101867.81;5084657;27;45286;-67
2022/08/10 10:39:43;;;;;;;;;10.25;10.25;;;;;37.98;20.15;101865.72;5091286;27;45602;-67
2022/08/10 10:42:39;;;;;;;;;9.50;9.50;;;;;38.51;19.61;101870.03;5095116;27;45392;-68
2022/08/10 10:45:29;;;;;;;;;9.50;9.50;;;;;37.65;20.41;101856.22;5089744;27;45232;-67
2022/08/10 10:48:16;;;;;;;;;9.00;9.00;;;;;37.97;20.22;101856.38;5088693;27;45338;-68
2022/08/10 10:51:06;;;;;;;;;11.75;11.75;;;;;37.62;20.36;101854.88;5076102;27;45575;-67
2022/08/10 10:54:08;;;;;;;;;8.00;8.00;;;;;38.73;20.62;101855.19;5083086;27;46518;-67
2022/08/10 10:57:04;;;;;;;;;7.00;7.00;;;;;39.24;18.47;101849.41;5084058;27;45729;-67
2022/08/10 10:59:55;;;;;;;;;11.50;10.00;;;;;39.51;18.07;101847.78;5094519;27;45501;-67
2022/08/10 11:03:02;;;;;;;;;9.00;9.00;;;;;39.30;18.61;101841.66;5085735;27;45504;-68
2022/08/10 11:06:05;;;;;;;;;10.00;10.00;;;;;39.62;18.68;101832.16;5065662;27;45519;-68
2022/08/10 11:08:38;;;;;;;;;8.75;8.50;;;;;39.88;17.67;101841.88;5086743;27;45384;-67
2022/08/10 11:11:12;;;;;;;;;11.50;11.25;;;;;40.04;17.57;101834.63;5093032;27;45433;-67
2022/08/10 11:13:45;;;;;;;;;12.75;12.75;;;;;40.14;16.83;101833.56;5086746;27;45432;-67
2022/08/10 11:16:29;;;;;;;;;21.50;17.50;;;;;39.97;17.21;101831.38;5093238;27;45425;-67
2022/08/10 11:19:06;;;;;;;;;10.50;10.50;;;;;40.33;16.74;101824.88;5089032;27;45395;-68
2022/08/10 11:21:49;;;;;;;;;9.00;9.00;;;;;40.67;16.61;101821.47;5089659;27;45347;-68
2022/08/10 11:24:17;;;;;;;;;9.75;9.75;;;;;40.91;15.74;101826.81;5088962;27;45440;-67
2022/08/10 11:26:46;;;;;;;;;10.00;10.00;;;;;41.06;15.68;101817.81;5094960;27;45908;-67
2022/08/10 11:29:31;;;;;;;;;9.50;7.75;;;;;40.62;15.61;101822.38;5079341;27;45767;-67
2022/08/10 11:32:15;;;;;;;;;7.75;7.75;;;;;40.48;15.21;101820.81;5094198;27;45413;-67
2022/08/10 11:35:25;;;;;;;;;8.00;7.00;;;;;40.79;15.12;101825.38;5091827;27;45526;-67
2022/08/10 11:38:14;;;;;;;;;7.00;7.00;;;;;41.10;16.12;101805.44;5083409;27;45398;-67
2022/08/10 11:41:04;;;;;;;;;9.75;7.75;;;;;41.23;14.91;101809.34;5093013;27;45489;-68
2022/08/10 11:43:36;;;;;;;;;11.75;10.75;;;;;41.13;14.51;101815.38;5086221;27;45437;-68
2022/08/10 11:46:20;;;;;;;;;8.50;8.50;;;;;41.08;14.49;101809.75;5074592;27;45516;-67
2022/08/10 11:48:51;;;;;;;;;8.25;8.25;;;;;41.23;14.48;101803.66;5088320;27;45935;-68